sensor_id;sensor_type;location;lat;lon;timestamp;temperature;humidity
21092;DHT22;10704;42.678;23.288;2022-12-07T00:01:38;5.70;99.90
21092;DHT22;10704;42.678;23.288;2022-12-07T00:04:06;5.70;99.90
21092;DHT22;10704;42.678;23.288;2022-12-07T00:06:40;5.40;99.90
21092;DHT22;10704;42.678;23.288;2022-12-07T00:15:09;5.80;99.90
21092;DHT22;10704;42.678;23.288;2022-12-07T00:18:05;5.90;99.90
21092;DHT22;10704;42.678;23.288;2022-12-07T00:20:31;5.80;99.90
21092;DHT22;10704;42.678;23.288;2022-12-07T00:22:57;5.70;99.90
21092;DHT22;10704;42.678;23.288;2022-12-07T00:25:22;5.70;99.90
21092;DHT22;10704;42.678;23.288;2022-12-07T00:27:48;5.60;99.90
21092;DHT22;10704;42.678;23.288;2022-12-07T00:30:15;5.80;99.90
21092;DHT22;10704;42.678;23.288;2022-12-07T00:32:41;5.90;99.90
21092;DHT22;10704;42.678;23.288;2022-12-07T00:35:07;6.00;99.90
21092;DHT22;10704;42.678;23.288;2022-12-07T00:37:33;6.00;99.90
21092;DHT22;10704;42.678;23.288;2022-12-07T00:39:59;6.00;99.90
21092;DHT22;10704;42.678;23.288;2022-12-07T00:42:25;6.00;99.90
21092;DHT22;10704;42.678;23.288;2022-12-07T00:44:50;6.00;99.90
21092;DHT22;10704;42.678;23.288;2022-12-07T00:47:16;6.00;99.90
21092;DHT22;10704;42.678;23.288;2022-12-07T00:49:42;6.00;99.90
21092;DHT22;10704;42.678;23.288;2022-12-07T00:52:08;6.00;99.90
21092;DHT22;10704;42.678;23.288;2022-12-07T00:58:22;6.00;99.90
21092;DHT22;10704;42.678;23.288;2022-12-07T01:01:09;6.00;99.90
21092;DHT22;10704;42.678;23.288;2022-12-07T01:03:36;5.70;99.90
21092;DHT22;10704;42.678;23.288;2022-12-07T01:06:02;5.70;99.90
21092;DHT22;10704;42.678;23.288;2022-12-07T01:08:29;5.70;99.90
21092;DHT22;10704;42.678;23.288;2022-12-07T01:16:32;5.60;99.90
21092;DHT22;10704;42.678;23.288;2022-12-07T01:18:59;5.60;99.90
21092;DHT22;10704;42.678;23.288;2022-12-07T01:21:28;5.50;99.90
21092;DHT22;10704;42.678;23.288;2022-12-07T01:31:29;5.40;99.90
21092;DHT22;10704;42.678;23.288;2022-12-07T01:33:58;5.40;99.90
21092;DHT22;10704;42.678;23.288;2022-12-07T01:36:27;5.50;99.90
21092;DHT22;10704;42.678;23.288;2022-12-07T01:42:40;5.40;99.90
21092;DHT22;10704;42.678;23.288;2022-12-07T01:47:57;5.40;99.90
21092;DHT22;10704;42.678;23.288;2022-12-07T01:50:26;5.40;99.90
21092;DHT22;10704;42.678;23.288;2022-12-07T01:52:55;5.40;99.90
21092;DHT22;10704;42.678;23.288;2022-12-07T01:55:22;5.50;99.90
21092;DHT22;10704;42.678;23.288;2022-12-07T01:57:50;5.50;99.90
21092;DHT22;10704;42.678;23.288;2022-12-07T02:00:18;5.30;99.90
21092;DHT22;10704;42.678;23.288;2022-12-07T02:05:13;5.30;99.90
21092;DHT22;10704;42.678;23.288;2022-12-07T02:07:39;5.40;99.90
21092;DHT22;10704;42.678;23.288;2022-12-07T02:17:46;5.40;99.90
21092;DHT22;10704;42.678;23.288;2022-12-07T02:31:46;5.30;99.90
21092;DHT22;10704;42.678;23.288;2022-12-07T02:34:50;5.30;99.90
21092;DHT22;10704;42.678;23.288;2022-12-07T02:37:39;5.50;99.90
21092;DHT22;10704;42.678;23.288;2022-12-07T02:40:29;5.40;99.90
21092;DHT22;10704;42.678;23.288;2022-12-07T02:43:04;5.20;99.90
21092;DHT22;10704;42.678;23.288;2022-12-07T02:45:34;5.20;99.90
21092;DHT22;10704;42.678;23.288;2022-12-07T02:48:03;5.10;99.90
21092;DHT22;10704;42.678;23.288;2022-12-07T02:50:30;5.10;99.90
21092;DHT22;10704;42.678;23.288;2022-12-07T02:52:56;5.10;99.90
21092;DHT22;10704;42.678;23.288;2022-12-07T02:55:28;5.10;99.90
21092;DHT22;10704;42.678;23.288;2022-12-07T03:20:04;5.20;99.90
21092;DHT22;10704;42.678;23.288;2022-12-07T03:22:32;5.10;99.90
21092;DHT22;10704;42.678;23.288;2022-12-07T03:32:59;5.10;99.90
21092;DHT22;10704;42.678;23.288;2022-12-07T03:36:07;5.20;99.90
21092;DHT22;10704;42.678;23.288;2022-12-07T03:38:42;5.20;99.90
21092;DHT22;10704;42.678;23.288;2022-12-07T03:41:24;5.30;99.90
21092;DHT22;10704;42.678;23.288;2022-12-07T03:43:51;5.20;99.90
21092;DHT22;10704;42.678;23.288;2022-12-07T03:51:57;5.10;99.90
21092;DHT22;10704;42.678;23.288;2022-12-07T03:57:22;5.00;99.90
21092;DHT22;10704;42.678;23.288;2022-12-07T03:59:48;5.10;99.90
21092;DHT22;10704;42.678;23.288;2022-12-07T04:02:15;5.10;99.90
21092;DHT22;10704;42.678;23.288;2022-12-07T04:04:42;5.20;99.90
21092;DHT22;10704;42.678;23.288;2022-12-07T04:07:08;5.10;99.90
21092;DHT22;10704;42.678;23.288;2022-12-07T04:09:34;5.20;99.90
21092;DHT22;10704;42.678;23.288;2022-12-07T04:12:00;5.20;99.90
21092;DHT22;10704;42.678;23.288;2022-12-07T04:14:26;5.20;99.90
21092;DHT22;10704;42.678;23.288;2022-12-07T04:16:55;5.10;99.90
21092;DHT22;10704;42.678;23.288;2022-12-07T04:19:26;5.10;99.90
21092;DHT22;10704;42.678;23.288;2022-12-07T04:21:52;5.00;99.90
21092;DHT22;10704;42.678;23.288;2022-12-07T04:24:19;5.00;99.90
21092;DHT22;10704;42.678;23.288;2022-12-07T04:26:45;4.90;99.90
21092;DHT22;10704;42.678;23.288;2022-12-07T04:29:12;4.90;99.90
21092;DHT22;10704;42.678;23.288;2022-12-07T04:31:38;4.80;99.90
21092;DHT22;10704;42.678;23.288;2022-12-07T04:34:05;4.80;99.90
21092;DHT22;10704;42.678;23.288;2022-12-07T04:36:31;4.80;99.90
21092;DHT22;10704;42.678;23.288;2022-12-07T04:38:57;4.70;99.90
21092;DHT22;10704;42.678;23.288;2022-12-07T04:41:24;4.70;99.90
21092;DHT22;10704;42.678;23.288;2022-12-07T04:44:01;4.70;99.90
21092;DHT22;10704;42.678;23.288;2022-12-07T04:46:28;4.80;99.90
21092;DHT22;10704;42.678;23.288;2022-12-07T04:48:55;4.70;99.90
21092;DHT22;10704;42.678;23.288;2022-12-07T04:51:26;4.60;99.90
21092;DHT22;10704;42.678;23.288;2022-12-07T04:53:52;4.60;99.90
21092;DHT22;10704;42.678;23.288;2022-12-07T04:56:19;4.60;99.90
21092;DHT22;10704;42.678;23.288;2022-12-07T04:58:46;4.60;99.90
21092;DHT22;10704;42.678;23.288;2022-12-07T05:01:16;4.60;99.90
21092;DHT22;10704;42.678;23.288;2022-12-07T05:03:42;4.60;99.90
21092;DHT22;10704;42.678;23.288;2022-12-07T05:06:09;4.70;99.90
21092;DHT22;10704;42.678;23.288;2022-12-07T05:08:35;4.70;99.90
21092;DHT22;10704;42.678;23.288;2022-12-07T05:11:03;4.70;99.90
21092;DHT22;10704;42.678;23.288;2022-12-07T05:13:29;4.70;99.90
21092;DHT22;10704;42.678;23.288;2022-12-07T05:15:55;4.70;99.90
21092;DHT22;10704;42.678;23.288;2022-12-07T05:18:21;4.70;99.90
21092;DHT22;10704;42.678;23.288;2022-12-07T05:20:47;4.80;99.90
21092;DHT22;10704;42.678;23.288;2022-12-07T05:23:13;4.70;99.90
21092;DHT22;10704;42.678;23.288;2022-12-07T05:25:39;5.20;99.90
21092;DHT22;10704;42.678;23.288;2022-12-07T05:28:05;5.50;99.90
21092;DHT22;10704;42.678;23.288;2022-12-07T05:30:32;5.40;99.90
21092;DHT22;10704;42.678;23.288;2022-12-07T05:40:33;4.80;99.90
21092;DHT22;10704;42.678;23.288;2022-12-07T05:46:45;5.10;99.90
21092;DHT22;10704;42.678;23.288;2022-12-07T05:49:11;5.00;99.90
21092;DHT22;10704;42.678;23.288;2022-12-07T05:51:37;5.00;99.90
21092;DHT22;10704;42.678;23.288;2022-12-07T05:54:14;5.00;99.90
21092;DHT22;10704;42.678;23.288;2022-12-07T06:00:27;5.00;99.90
21092;DHT22;10704;42.678;23.288;2022-12-07T06:18:02;5.30;99.90
21092;DHT22;10704;42.678;23.288;2022-12-07T06:20:28;5.40;99.90
21092;DHT22;10704;42.678;23.288;2022-12-07T06:22:54;5.30;99.90
21092;DHT22;10704;42.678;23.288;2022-12-07T06:25:20;5.30;99.90
21092;DHT22;10704;42.678;23.288;2022-12-07T06:27:45;5.30;99.90
21092;DHT22;10704;42.678;23.288;2022-12-07T06:30:13;5.50;99.90
21092;DHT22;10704;42.678;23.288;2022-12-07T06:32:39;5.50;99.90
21092;DHT22;10704;42.678;23.288;2022-12-07T06:35:24;5.60;99.90
21092;DHT22;10704;42.678;23.288;2022-12-07T06:37:50;5.50;99.90
21092;DHT22;10704;42.678;23.288;2022-12-07T06:40:16;5.50;99.90
21092;DHT22;10704;42.678;23.288;2022-12-07T06:42:42;5.60;99.90
21092;DHT22;10704;42.678;23.288;2022-12-07T06:45:31;5.50;99.90
21092;DHT22;10704;42.678;23.288;2022-12-07T06:47:57;5.60;99.90
21092;DHT22;10704;42.678;23.288;2022-12-07T06:50:22;5.50;99.90
21092;DHT22;10704;42.678;23.288;2022-12-07T06:56:14;5.60;99.90
21092;DHT22;10704;42.678;23.288;2022-12-07T06:58:40;5.60;99.90
21092;DHT22;10704;42.678;23.288;2022-12-07T07:01:11;5.60;99.90
21092;DHT22;10704;42.678;23.288;2022-12-07T07:03:37;5.60;99.90
21092;DHT22;10704;42.678;23.288;2022-12-07T07:06:04;5.50;99.90
21092;DHT22;10704;42.678;23.288;2022-12-07T07:08:30;5.70;99.90
21092;DHT22;10704;42.678;23.288;2022-12-07T07:10:56;5.60;99.90
21092;DHT22;10704;42.678;23.288;2022-12-07T07:13:22;5.60;99.90
21092;DHT22;10704;42.678;23.288;2022-12-07T07:15:48;5.50;99.90
21092;DHT22;10704;42.678;23.288;2022-12-07T07:18:13;5.60;99.90
21092;DHT22;10704;42.678;23.288;2022-12-07T07:20:39;5.50;99.90
21092;DHT22;10704;42.678;23.288;2022-12-07T07:23:05;5.60;99.90
21092;DHT22;10704;42.678;23.288;2022-12-07T07:25:32;5.60;99.90
21092;DHT22;10704;42.678;23.288;2022-12-07T07:35:34;5.90;99.90
21092;DHT22;10704;42.678;23.288;2022-12-07T07:38:00;6.00;99.90
21092;DHT22;10704;42.678;23.288;2022-12-07T07:40:27;6.00;99.90
21092;DHT22;10704;42.678;23.288;2022-12-07T07:45:58;6.10;99.90
21092;DHT22;10704;42.678;23.288;2022-12-07T07:48:24;6.20;99.90
21092;DHT22;10704;42.678;23.288;2022-12-07T07:50:51;6.20;99.90
21092;DHT22;10704;42.678;23.288;2022-12-07T07:57:04;6.40;99.90
21092;DHT22;10704;42.678;23.288;2022-12-07T07:59:30;6.50;99.90
21092;DHT22;10704;42.678;23.288;2022-12-07T08:09:30;6.80;99.90
21092;DHT22;10704;42.678;23.288;2022-12-07T08:11:57;7.20;99.90
21092;DHT22;10704;42.678;23.288;2022-12-07T08:17:21;7.60;99.90
21092;DHT22;10704;42.678;23.288;2022-12-07T08:19:48;7.50;99.90
21092;DHT22;10704;42.678;23.288;2022-12-07T08:22:14;7.50;99.90
21092;DHT22;10704;42.678;23.288;2022-12-07T08:24:39;7.40;99.90
21092;DHT22;10704;42.678;23.288;2022-12-07T08:27:05;7.20;99.90
21092;DHT22;10704;42.678;23.288;2022-12-07T08:29:31;7.10;99.90
21092;DHT22;10704;42.678;23.288;2022-12-07T08:31:57;7.10;99.90
21092;DHT22;10704;42.678;23.288;2022-12-07T08:34:23;7.00;99.90
21092;DHT22;10704;42.678;23.288;2022-12-07T08:36:49;6.90;99.90
21092;DHT22;10704;42.678;23.288;2022-12-07T08:42:38;6.90;99.90
21092;DHT22;10704;42.678;23.288;2022-12-07T08:45:10;6.90;99.90
21092;DHT22;10704;42.678;23.288;2022-12-07T08:47:40;7.00;99.90
21092;DHT22;10704;42.678;23.288;2022-12-07T08:50:08;7.10;99.90
21092;DHT22;10704;42.678;23.288;2022-12-07T08:56:40;7.10;99.90
21092;DHT22;10704;42.678;23.288;2022-12-07T08:59:07;7.10;99.90
21092;DHT22;10704;42.678;23.288;2022-12-07T09:08:34;7.40;99.90
21092;DHT22;10704;42.678;23.288;2022-12-07T09:11:02;7.50;99.90
21092;DHT22;10704;42.678;23.288;2022-12-07T09:13:28;7.60;99.90
21092;DHT22;10704;42.678;23.288;2022-12-07T09:15:54;7.50;99.90
21092;DHT22;10704;42.678;23.288;2022-12-07T09:18:19;7.40;99.90
21092;DHT22;10704;42.678;23.288;2022-12-07T09:20:45;7.30;99.90
21092;DHT22;10704;42.678;23.288;2022-12-07T09:23:11;7.50;99.90
21092;DHT22;10704;42.678;23.288;2022-12-07T09:25:38;7.50;99.90
21092;DHT22;10704;42.678;23.288;2022-12-07T09:28:04;7.30;99.90
21092;DHT22;10704;42.678;23.288;2022-12-07T09:30:30;7.30;99.90
21092;DHT22;10704;42.678;23.288;2022-12-07T09:32:56;7.40;99.90
21092;DHT22;10704;42.678;23.288;2022-12-07T09:35:24;7.60;99.90
21092;DHT22;10704;42.678;23.288;2022-12-07T09:37:50;7.70;99.90
21092;DHT22;10704;42.678;23.288;2022-12-07T09:40:18;7.80;99.90
21092;DHT22;10704;42.678;23.288;2022-12-07T09:42:48;7.90;99.90
21092;DHT22;10704;42.678;23.288;2022-12-07T09:45:30;8.00;99.90
21092;DHT22;10704;42.678;23.288;2022-12-07T09:47:58;8.10;99.90
21092;DHT22;10704;42.678;23.288;2022-12-07T09:50:26;8.20;99.90
21092;DHT22;10704;42.678;23.288;2022-12-07T09:56:41;8.40;99.90
21092;DHT22;10704;42.678;23.288;2022-12-07T10:02:59;8.60;99.90
21092;DHT22;10704;42.678;23.288;2022-12-07T10:05:41;8.30;99.90
21092;DHT22;10704;42.678;23.288;2022-12-07T10:08:11;8.30;99.90
21092;DHT22;10704;42.678;23.288;2022-12-07T10:10:37;8.60;99.90
21092;DHT22;10704;42.678;23.288;2022-12-07T10:13:13;9.00;99.90
21092;DHT22;10704;42.678;23.288;2022-12-07T10:15:57;9.30;99.90
21092;DHT22;10704;42.678;23.288;2022-12-07T10:25:19;10.90;99.90
21092;DHT22;10704;42.678;23.288;2022-12-07T10:27:58;10.70;99.90
21092;DHT22;10704;42.678;23.288;2022-12-07T10:30:25;10.60;99.90
21092;DHT22;10704;42.678;23.288;2022-12-07T10:32:51;10.50;99.90
21092;DHT22;10704;42.678;23.288;2022-12-07T10:35:28;9.90;99.90
21092;DHT22;10704;42.678;23.288;2022-12-07T10:52:00;10.20;99.90
21092;DHT22;10704;42.678;23.288;2022-12-07T11:17:27;16.30;99.90
21092;DHT22;10704;42.678;23.288;2022-12-07T11:22:55;15.90;98.50
21092;DHT22;10704;42.678;23.288;2022-12-07T11:25:35;15.60;99.60
21092;DHT22;10704;42.678;23.288;2022-12-07T11:39:37;18.60;91.50
21092;DHT22;10704;42.678;23.288;2022-12-07T11:42:16;18.90;90.00
21092;DHT22;10704;42.678;23.288;2022-12-07T11:45:18;18.70;90.50
21092;DHT22;10704;42.678;23.288;2022-12-07T12:12:09;17.10;90.00
21092;DHT22;10704;42.678;23.288;2022-12-07T12:20:45;17.50;90.90
21092;DHT22;10704;42.678;23.288;2022-12-07T12:23:42;17.70;89.20
21092;DHT22;10704;42.678;23.288;2022-12-07T12:26:21;17.90;89.10
21092;DHT22;10704;42.678;23.288;2022-12-07T12:28:52;18.00;88.30
21092;DHT22;10704;42.678;23.288;2022-12-07T12:59:55;18.20;88.50
21092;DHT22;10704;42.678;23.288;2022-12-07T13:02:38;18.10;88.20
21092;DHT22;10704;42.678;23.288;2022-12-07T13:18:27;17.40;90.30
21092;DHT22;10704;42.678;23.288;2022-12-07T13:34:00;17.00;90.70
21092;DHT22;10704;42.678;23.288;2022-12-07T13:36:30;16.90;90.60
21092;DHT22;10704;42.678;23.288;2022-12-07T13:41:43;15.30;92.80
21092;DHT22;10704;42.678;23.288;2022-12-07T13:44:15;14.70;94.00
21092;DHT22;10704;42.678;23.288;2022-12-07T13:49:32;14.10;96.40
21092;DHT22;10704;42.678;23.288;2022-12-07T13:52:19;13.70;97.10
21092;DHT22;10704;42.678;23.288;2022-12-07T13:55:11;13.40;98.50
21092;DHT22;10704;42.678;23.288;2022-12-07T13:57:39;13.40;99.70
21092;DHT22;10704;42.678;23.288;2022-12-07T14:00:13;13.20;99.90
21092;DHT22;10704;42.678;23.288;2022-12-07T14:05:39;12.90;99.90
21092;DHT22;10704;42.678;23.288;2022-12-07T14:08:22;12.90;99.90
21092;DHT22;10704;42.678;23.288;2022-12-07T14:16:00;12.60;99.90
21092;DHT22;10704;42.678;23.288;2022-12-07T14:18:28;12.60;99.90
21092;DHT22;10704;42.678;23.288;2022-12-07T14:21:15;12.50;99.90
21092;DHT22;10704;42.678;23.288;2022-12-07T14:23:45;12.30;99.90
21092;DHT22;10704;42.678;23.288;2022-12-07T14:26:27;12.30;99.90
21092;DHT22;10704;42.678;23.288;2022-12-07T14:31:45;11.70;99.90
21092;DHT22;10704;42.678;23.288;2022-12-07T14:34:14;11.50;99.90
21092;DHT22;10704;42.678;23.288;2022-12-07T14:36:40;11.40;99.90
21092;DHT22;10704;42.678;23.288;2022-12-07T14:39:06;11.30;99.90
21092;DHT22;10704;42.678;23.288;2022-12-07T14:41:31;11.20;99.90
21092;DHT22;10704;42.678;23.288;2022-12-07T14:44:17;11.10;99.90
21092;DHT22;10704;42.678;23.288;2022-12-07T14:50:30;10.90;99.90
21092;DHT22;10704;42.678;23.288;2022-12-07T14:56:12;10.60;99.90
21092;DHT22;10704;42.678;23.288;2022-12-07T14:58:39;10.40;99.90
21092;DHT22;10704;42.678;23.288;2022-12-07T15:01:05;10.40;99.90
21092;DHT22;10704;42.678;23.288;2022-12-07T15:03:31;10.40;99.90
21092;DHT22;10704;42.678;23.288;2022-12-07T15:06:00;10.30;99.90
21092;DHT22;10704;42.678;23.288;2022-12-07T15:16:01;10.10;99.90
21092;DHT22;10704;42.678;23.288;2022-12-07T15:18:27;10.00;99.90
21092;DHT22;10704;42.678;23.288;2022-12-07T15:20:53;9.90;99.90
21092;DHT22;10704;42.678;23.288;2022-12-07T15:27:07;9.80;99.90
21092;DHT22;10704;42.678;23.288;2022-12-07T15:29:33;9.80;99.90
21092;DHT22;10704;42.678;23.288;2022-12-07T15:31:58;9.70;99.90
21092;DHT22;10704;42.678;23.288;2022-12-07T15:34:26;9.60;99.90
21092;DHT22;10704;42.678;23.288;2022-12-07T15:36:54;9.50;99.90
21092;DHT22;10704;42.678;23.288;2022-12-07T15:39:20;9.50;99.90
21092;DHT22;10704;42.678;23.288;2022-12-07T15:41:47;9.50;99.90
21092;DHT22;10704;42.678;23.288;2022-12-07T15:44:13;9.50;99.90
21092;DHT22;10704;42.678;23.288;2022-12-07T15:46:59;9.40;99.90
21092;DHT22;10704;42.678;23.288;2022-12-07T15:49:24;9.30;99.90
21092;DHT22;10704;42.678;23.288;2022-12-07T15:51:50;9.40;99.90
21092;DHT22;10704;42.678;23.288;2022-12-07T15:54:24;9.30;99.90
21092;DHT22;10704;42.678;23.288;2022-12-07T15:56:51;9.20;99.90
21092;DHT22;10704;42.678;23.288;2022-12-07T15:59:17;9.10;99.90
21092;DHT22;10704;42.678;23.288;2022-12-07T16:01:43;8.90;99.90
21092;DHT22;10704;42.678;23.288;2022-12-07T16:04:09;8.80;99.90
21092;DHT22;10704;42.678;23.288;2022-12-07T16:06:35;8.90;99.90
21092;DHT22;10704;42.678;23.288;2022-12-07T16:09:01;8.80;99.90
21092;DHT22;10704;42.678;23.288;2022-12-07T16:11:27;8.70;99.90
21092;DHT22;10704;42.678;23.288;2022-12-07T16:13:53;8.60;99.90
21092;DHT22;10704;42.678;23.288;2022-12-07T16:16:19;8.70;99.90
21092;DHT22;10704;42.678;23.288;2022-12-07T16:18:48;8.80;99.90
21092;DHT22;10704;42.678;23.288;2022-12-07T16:21:15;8.60;99.90
21092;DHT22;10704;42.678;23.288;2022-12-07T16:23:41;8.50;99.90
21092;DHT22;10704;42.678;23.288;2022-12-07T16:26:18;8.30;99.90
21092;DHT22;10704;42.678;23.288;2022-12-07T16:28:47;8.30;99.90
21092;DHT22;10704;42.678;23.288;2022-12-07T16:31:15;8.20;99.90
21092;DHT22;10704;42.678;23.288;2022-12-07T16:33:42;8.00;99.90
21092;DHT22;10704;42.678;23.288;2022-12-07T16:36:10;8.20;99.90
21092;DHT22;10704;42.678;23.288;2022-12-07T16:38:37;8.20;99.90
21092;DHT22;10704;42.678;23.288;2022-12-07T16:41:04;8.20;99.90
21092;DHT22;10704;42.678;23.288;2022-12-07T16:43:30;8.20;99.90
21092;DHT22;10704;42.678;23.288;2022-12-07T16:45:56;8.20;99.90
21092;DHT22;10704;42.678;23.288;2022-12-07T16:48:22;8.00;99.90
21092;DHT22;10704;42.678;23.288;2022-12-07T16:50:48;8.00;99.90
21092;DHT22;10704;42.678;23.288;2022-12-07T16:53:15;8.00;99.90
21092;DHT22;10704;42.678;23.288;2022-12-07T16:55:43;7.90;99.90
21092;DHT22;10704;42.678;23.288;2022-12-07T16:58:11;7.80;99.90
21092;DHT22;10704;42.678;23.288;2022-12-07T17:00:37;7.60;99.90
21092;DHT22;10704;42.678;23.288;2022-12-07T17:03:03;7.70;99.90
21092;DHT22;10704;42.678;23.288;2022-12-07T17:05:29;7.60;99.90
21092;DHT22;10704;42.678;23.288;2022-12-07T17:07:56;7.60;99.90
21092;DHT22;10704;42.678;23.288;2022-12-07T17:10:23;7.60;99.90
21092;DHT22;10704;42.678;23.288;2022-12-07T17:12:50;7.70;99.90
21092;DHT22;10704;42.678;23.288;2022-12-07T17:15:17;7.60;99.90
21092;DHT22;10704;42.678;23.288;2022-12-07T17:18:01;7.50;99.90
21092;DHT22;10704;42.678;23.288;2022-12-07T17:20:27;7.60;99.90
21092;DHT22;10704;42.678;23.288;2022-12-07T17:22:53;7.40;99.90
21092;DHT22;10704;42.678;23.288;2022-12-07T17:25:19;7.40;99.90
21092;DHT22;10704;42.678;23.288;2022-12-07T17:27:46;7.30;99.90
21092;DHT22;10704;42.678;23.288;2022-12-07T17:30:12;7.30;99.90
21092;DHT22;10704;42.678;23.288;2022-12-07T17:32:39;7.30;99.90
21092;DHT22;10704;42.678;23.288;2022-12-07T17:35:05;7.40;99.90
21092;DHT22;10704;42.678;23.288;2022-12-07T17:37:32;7.30;99.90
21092;DHT22;10704;42.678;23.288;2022-12-07T17:39:58;7.40;99.90
21092;DHT22;10704;42.678;23.288;2022-12-07T17:42:24;7.30;99.90
21092;DHT22;10704;42.678;23.288;2022-12-07T17:45:07;7.20;99.90
21092;DHT22;10704;42.678;23.288;2022-12-07T17:47:34;7.10;99.90
21092;DHT22;10704;42.678;23.288;2022-12-07T17:50:00;7.20;99.90
21092;DHT22;10704;42.678;23.288;2022-12-07T17:52:26;7.30;99.90
21092;DHT22;10704;42.678;23.288;2022-12-07T17:55:11;7.20;99.90
21092;DHT22;10704;42.678;23.288;2022-12-07T17:57:37;7.10;99.90
21092;DHT22;10704;42.678;23.288;2022-12-07T18:00:04;7.00;99.90
21092;DHT22;10704;42.678;23.288;2022-12-07T18:02:37;6.90;99.90
21092;DHT22;10704;42.678;23.288;2022-12-07T18:05:05;6.90;99.90
21092;DHT22;10704;42.678;23.288;2022-12-07T18:07:31;6.80;99.90
21092;DHT22;10704;42.678;23.288;2022-12-07T18:09:57;6.90;99.90
21092;DHT22;10704;42.678;23.288;2022-12-07T18:12:23;6.70;99.90
21092;DHT22;10704;42.678;23.288;2022-12-07T18:14:49;6.70;99.90
21092;DHT22;10704;42.678;23.288;2022-12-07T18:17:16;6.60;99.90
21092;DHT22;10704;42.678;23.288;2022-12-07T18:19:42;6.70;99.90
21092;DHT22;10704;42.678;23.288;2022-12-07T18:22:08;6.80;99.90
21092;DHT22;10704;42.678;23.288;2022-12-07T18:24:35;6.70;99.90
21092;DHT22;10704;42.678;23.288;2022-12-07T18:27:05;6.60;99.90
21092;DHT22;10704;42.678;23.288;2022-12-07T18:29:32;6.60;99.90
21092;DHT22;10704;42.678;23.288;2022-12-07T18:31:57;6.60;99.90
21092;DHT22;10704;42.678;23.288;2022-12-07T18:34:23;6.50;99.90
21092;DHT22;10704;42.678;23.288;2022-12-07T18:36:49;6.30;99.90
21092;DHT22;10704;42.678;23.288;2022-12-07T18:39:16;6.10;99.90
21092;DHT22;10704;42.678;23.288;2022-12-07T18:41:43;6.20;99.90
21092;DHT22;10704;42.678;23.288;2022-12-07T18:44:09;6.10;99.90
21092;DHT22;10704;42.678;23.288;2022-12-07T18:46:37;6.00;99.90
21092;DHT22;10704;42.678;23.288;2022-12-07T18:49:05;6.20;99.90
21092;DHT22;10704;42.678;23.288;2022-12-07T18:51:31;6.20;99.90
21092;DHT22;10704;42.678;23.288;2022-12-07T18:53:57;6.20;99.90
21092;DHT22;10704;42.678;23.288;2022-12-07T18:56:25;6.10;99.90
21092;DHT22;10704;42.678;23.288;2022-12-07T18:58:56;6.00;99.90
21092;DHT22;10704;42.678;23.288;2022-12-07T19:01:42;5.90;99.90
21092;DHT22;10704;42.678;23.288;2022-12-07T19:04:08;5.80;99.90
21092;DHT22;10704;42.678;23.288;2022-12-07T19:06:34;5.90;99.90
21092;DHT22;10704;42.678;23.288;2022-12-07T19:09:00;5.80;99.90
21092;DHT22;10704;42.678;23.288;2022-12-07T19:11:29;5.90;99.90
21092;DHT22;10704;42.678;23.288;2022-12-07T19:14:36;5.90;99.90
21092;DHT22;10704;42.678;23.288;2022-12-07T19:17:03;5.80;99.90
21092;DHT22;10704;42.678;23.288;2022-12-07T19:19:39;5.80;99.90
21092;DHT22;10704;42.678;23.288;2022-12-07T19:22:07;5.80;99.90
21092;DHT22;10704;42.678;23.288;2022-12-07T19:24:33;5.80;99.90
21092;DHT22;10704;42.678;23.288;2022-12-07T19:27:00;5.80;99.90
21092;DHT22;10704;42.678;23.288;2022-12-07T19:29:28;5.80;99.90
21092;DHT22;10704;42.678;23.288;2022-12-07T19:31:57;5.90;99.90
21092;DHT22;10704;42.678;23.288;2022-12-07T19:34:22;6.00;99.90
21092;DHT22;10704;42.678;23.288;2022-12-07T19:36:48;5.90;99.90
21092;DHT22;10704;42.678;23.288;2022-12-07T19:39:14;5.90;99.90
21092;DHT22;10704;42.678;23.288;2022-12-07T19:41:41;6.00;99.90
21092;DHT22;10704;42.678;23.288;2022-12-07T19:44:16;6.00;99.90
21092;DHT22;10704;42.678;23.288;2022-12-07T19:46:46;6.00;99.90
21092;DHT22;10704;42.678;23.288;2022-12-07T19:49:15;6.00;99.90
21092;DHT22;10704;42.678;23.288;2022-12-07T19:51:42;5.90;99.90
21092;DHT22;10704;42.678;23.288;2022-12-07T19:54:09;5.90;99.90
21092;DHT22;10704;42.678;23.288;2022-12-07T19:56:37;5.80;99.90
21092;DHT22;10704;42.678;23.288;2022-12-07T19:59:03;5.70;99.90
21092;DHT22;10704;42.678;23.288;2022-12-07T20:01:29;5.70;99.90
21092;DHT22;10704;42.678;23.288;2022-12-07T20:03:56;5.90;99.90
21092;DHT22;10704;42.678;23.288;2022-12-07T20:06:22;6.00;99.90
21092;DHT22;10704;42.678;23.288;2022-12-07T20:08:48;5.90;99.90
21092;DHT22;10704;42.678;23.288;2022-12-07T20:11:16;5.80;99.90
21092;DHT22;10704;42.678;23.288;2022-12-07T20:14:00;5.90;99.90
21092;DHT22;10704;42.678;23.288;2022-12-07T20:16:26;5.90;99.90
21092;DHT22;10704;42.678;23.288;2022-12-07T20:18:52;6.00;99.90
21092;DHT22;10704;42.678;23.288;2022-12-07T20:21:19;5.80;99.90
21092;DHT22;10704;42.678;23.288;2022-12-07T20:23:45;5.60;99.90
21092;DHT22;10704;42.678;23.288;2022-12-07T20:26:13;5.60;99.90
21092;DHT22;10704;42.678;23.288;2022-12-07T20:28:40;5.70;99.90
21092;DHT22;10704;42.678;23.288;2022-12-07T20:31:07;5.60;99.90
21092;DHT22;10704;42.678;23.288;2022-12-07T20:33:33;5.70;99.90
21092;DHT22;10704;42.678;23.288;2022-12-07T20:36:03;5.70;99.90
21092;DHT22;10704;42.678;23.288;2022-12-07T20:38:30;5.70;99.90
21092;DHT22;10704;42.678;23.288;2022-12-07T20:41:01;5.70;99.90
21092;DHT22;10704;42.678;23.288;2022-12-07T20:43:28;5.70;99.90
21092;DHT22;10704;42.678;23.288;2022-12-07T20:45:55;5.60;99.90
21092;DHT22;10704;42.678;23.288;2022-12-07T20:48:21;5.60;99.90
21092;DHT22;10704;42.678;23.288;2022-12-07T20:50:48;5.60;99.90
21092;DHT22;10704;42.678;23.288;2022-12-07T20:53:14;5.40;99.90
21092;DHT22;10704;42.678;23.288;2022-12-07T20:55:40;5.40;99.90
21092;DHT22;10704;42.678;23.288;2022-12-07T20:58:06;5.20;99.90
21092;DHT22;10704;42.678;23.288;2022-12-07T21:00:33;5.30;99.90
21092;DHT22;10704;42.678;23.288;2022-12-07T21:02:59;5.20;99.90
21092;DHT22;10704;42.678;23.288;2022-12-07T21:05:26;5.10;99.90
21092;DHT22;10704;42.678;23.288;2022-12-07T21:07:52;5.00;99.90
21092;DHT22;10704;42.678;23.288;2022-12-07T21:10:17;4.90;99.90
21092;DHT22;10704;42.678;23.288;2022-12-07T21:12:43;4.80;99.90
21092;DHT22;10704;42.678;23.288;2022-12-07T21:15:09;5.00;99.90
21092;DHT22;10704;42.678;23.288;2022-12-07T21:17:35;4.90;99.90
21092;DHT22;10704;42.678;23.288;2022-12-07T21:20:01;5.00;99.90
21092;DHT22;10704;42.678;23.288;2022-12-07T21:22:27;5.00;99.90
21092;DHT22;10704;42.678;23.288;2022-12-07T21:24:53;5.10;99.90
21092;DHT22;10704;42.678;23.288;2022-12-07T21:27:19;5.10;99.90
21092;DHT22;10704;42.678;23.288;2022-12-07T21:29:45;5.10;99.90